sensor_id;sensor_type;location;lat;lon;timestamp;P1;durP1;ratioP1;P2;durP2;ratioP2
41043;SDS011;51680;49.806;18.774;2023-02-28T00:02:59;38.95;;;16.65;;
41043;SDS011;51680;49.806;18.774;2023-02-28T00:06:03;31.80;;;14.70;;
41043;SDS011;51680;49.806;18.774;2023-02-28T00:09:06;37.85;;;15.48;;
41043;SDS011;51680;49.806;18.774;2023-02-28T00:12:08;40.00;;;15.38;;
41043;SDS011;51680;49.806;18.774;2023-02-28T00:15:10;33.95;;;15.02;;
41043;SDS011;51680;49.806;18.774;2023-02-28T00:18:12;31.42;;;13.35;;
41043;SDS011;51680;49.806;18.774;2023-02-28T00:21:16;36.13;;;15.50;;
41043;SDS011;51680;49.806;18.774;2023-02-28T00:24:18;32.92;;;15.05;;
41043;SDS011;51680;49.806;18.774;2023-02-28T00:27:20;38.40;;;16.48;;
41043;SDS011;51680;49.806;18.774;2023-02-28T00:30:22;34.65;;;15.80;;
41043;SDS011;51680;49.806;18.774;2023-02-28T00:33:25;37.00;;;16.77;;
41043;SDS011;51680;49.806;18.774;2023-02-28T00:36:29;40.78;;;16.60;;
41043;SDS011;51680;49.806;18.774;2023-02-28T00:39:32;40.70;;;18.20;;
41043;SDS011;51680;49.806;18.774;2023-02-28T00:42:35;35.50;;;13.32;;
41043;SDS011;51680;49.806;18.774;2023-02-28T00:45:38;38.78;;;18.30;;
41043;SDS011;51680;49.806;18.774;2023-02-28T00:48:40;32.23;;;16.57;;
41043;SDS011;51680;49.806;18.774;2023-02-28T00:51:43;38.42;;;17.27;;
41043;SDS011;51680;49.806;18.774;2023-02-28T00:54:45;38.97;;;16.92;;
41043;SDS011;51680;49.806;18.774;2023-02-28T00:57:48;37.80;;;18.35;;
41043;SDS011;51680;49.806;18.774;2023-02-28T01:00:50;34.08;;;16.40;;
41043;SDS011;51680;49.806;18.774;2023-02-28T01:03:52;33.25;;;17.02;;
41043;SDS011;51680;49.806;18.774;2023-02-28T01:06:56;38.70;;;16.92;;
41043;SDS011;51680;49.806;18.774;2023-02-28T01:09:58;31.92;;;14.43;;
41043;SDS011;51680;49.806;18.774;2023-02-28T01:12:59;37.30;;;16.20;;
41043;SDS011;51680;49.806;18.774;2023-02-28T01:16:01;38.47;;;15.38;;
41043;SDS011;51680;49.806;18.774;2023-02-28T01:19:03;30.70;;;14.93;;
41043;SDS011;51680;49.806;18.774;2023-02-28T01:22:06;37.10;;;17.17;;
41043;SDS011;51680;49.806;18.774;2023-02-28T01:25:08;31.10;;;12.73;;
41043;SDS011;51680;49.806;18.774;2023-02-28T01:28:11;40.72;;;15.18;;
41043;SDS011;51680;49.806;18.774;2023-02-28T01:31:13;30.27;;;14.45;;
41043;SDS011;51680;49.806;18.774;2023-02-28T01:34:15;29.40;;;12.88;;
41043;SDS011;51680;49.806;18.774;2023-02-28T01:37:20;30.05;;;14.23;;
41043;SDS011;51680;49.806;18.774;2023-02-28T01:40:22;40.85;;;16.80;;
41043;SDS011;51680;49.806;18.774;2023-02-28T01:43:24;38.08;;;16.00;;
41043;SDS011;51680;49.806;18.774;2023-02-28T01:46:29;39.88;;;17.60;;
41043;SDS011;51680;49.806;18.774;2023-02-28T01:49:32;39.80;;;17.02;;
41043;SDS011;51680;49.806;18.774;2023-02-28T01:52:35;23.40;;;9.57;;
41043;SDS011;51680;49.806;18.774;2023-02-28T01:55:37;28.73;;;12.85;;
41043;SDS011;51680;49.806;18.774;2023-02-28T01:58:40;30.05;;;14.18;;
41043;SDS011;51680;49.806;18.774;2023-02-28T02:01:41;28.60;;;12.75;;
41043;SDS011;51680;49.806;18.774;2023-02-28T02:04:45;29.88;;;15.15;;
41043;SDS011;51680;49.806;18.774;2023-02-28T02:07:55;30.02;;;14.45;;
41043;SDS011;51680;49.806;18.774;2023-02-28T02:11:00;17.08;;;7.43;;
41043;SDS011;51680;49.806;18.774;2023-02-28T02:17:41;25.02;;;12.05;;
41043;SDS011;51680;49.806;18.774;2023-02-28T02:24:31;30.38;;;11.55;;
41043;SDS011;51680;49.806;18.774;2023-02-28T02:27:53;30.05;;;14.15;;
41043;SDS011;51680;49.806;18.774;2023-02-28T02:34:45;28.00;;;14.57;;
41043;SDS011;51680;49.806;18.774;2023-02-28T02:37:55;28.45;;;13.50;;
41043;SDS011;51680;49.806;18.774;2023-02-28T02:41:04;28.42;;;13.43;;
41043;SDS011;51680;49.806;18.774;2023-02-28T02:44:15;25.42;;;12.70;;
41043;SDS011;51680;49.806;18.774;2023-02-28T02:47:22;25.08;;;12.48;;
41043;SDS011;51680;49.806;18.774;2023-02-28T02:50:30;26.98;;;12.77;;
41043;SDS011;51680;49.806;18.774;2023-02-28T02:53:38;27.23;;;12.35;;
41043;SDS011;51680;49.806;18.774;2023-02-28T02:56:44;24.83;;;12.27;;
41043;SDS011;51680;49.806;18.774;2023-02-28T02:59:48;26.42;;;12.82;;
41043;SDS011;51680;49.806;18.774;2023-02-28T03:02:54;25.48;;;13.40;;
41043;SDS011;51680;49.806;18.774;2023-02-28T03:05:59;25.23;;;11.27;;
41043;SDS011;51680;49.806;18.774;2023-02-28T03:09:02;26.63;;;12.98;;
41043;SDS011;51680;49.806;18.774;2023-02-28T03:12:04;26.05;;;11.93;;
41043;SDS011;51680;49.806;18.774;2023-02-28T03:15:11;21.08;;;10.93;;
41043;SDS011;51680;49.806;18.774;2023-02-28T03:18:22;13.73;;;6.40;;
41043;SDS011;51680;49.806;18.774;2023-02-28T03:21:35;21.25;;;10.40;;
41043;SDS011;51680;49.806;18.774;2023-02-28T03:24:43;18.42;;;7.85;;
41043;SDS011;51680;49.806;18.774;2023-02-28T03:27:54;26.70;;;11.80;;
41043;SDS011;51680;49.806;18.774;2023-02-28T03:31:03;25.73;;;12.50;;
41043;SDS011;51680;49.806;18.774;2023-02-28T03:34:12;23.08;;;10.50;;
41043;SDS011;51680;49.806;18.774;2023-02-28T03:37:20;28.00;;;12.00;;
41043;SDS011;51680;49.806;18.774;2023-02-28T03:40:25;27.38;;;10.25;;
41043;SDS011;51680;49.806;18.774;2023-02-28T03:43:32;28.83;;;12.38;;
41043;SDS011;51680;49.806;18.774;2023-02-28T03:46:39;21.83;;;11.07;;
41043;SDS011;51680;49.806;18.774;2023-02-28T03:49:49;13.95;;;6.07;;
41043;SDS011;51680;49.806;18.774;2023-02-28T03:52:57;20.40;;;8.57;;
41043;SDS011;51680;49.806;18.774;2023-02-28T03:56:06;24.70;;;11.73;;
41043;SDS011;51680;49.806;18.774;2023-02-28T03:59:13;25.92;;;12.15;;
41043;SDS011;51680;49.806;18.774;2023-02-28T04:02:19;22.10;;;11.30;;
41043;SDS011;51680;49.806;18.774;2023-02-28T04:05:21;26.80;;;12.50;;
41043;SDS011;51680;49.806;18.774;2023-02-28T04:08:25;25.00;;;12.98;;
41043;SDS011;51680;49.806;18.774;2023-02-28T04:11:27;26.17;;;12.02;;
41043;SDS011;51680;49.806;18.774;2023-02-28T04:14:35;23.02;;;11.68;;
41043;SDS011;51680;49.806;18.774;2023-02-28T04:17:37;29.02;;;14.63;;
41043;SDS011;51680;49.806;18.774;2023-02-28T04:20:38;33.78;;;15.38;;
41043;SDS011;51680;49.806;18.774;2023-02-28T04:23:42;32.40;;;14.85;;
41043;SDS011;51680;49.806;18.774;2023-02-28T04:26:44;33.58;;;15.85;;
41043;SDS011;51680;49.806;18.774;2023-02-28T04:29:47;32.58;;;16.15;;
41043;SDS011;51680;49.806;18.774;2023-02-28T04:32:48;31.63;;;15.25;;
41043;SDS011;51680;49.806;18.774;2023-02-28T04:35:57;31.30;;;14.90;;
41043;SDS011;51680;49.806;18.774;2023-02-28T04:39:01;34.25;;;15.38;;
41043;SDS011;51680;49.806;18.774;2023-02-28T04:42:04;36.80;;;16.23;;
41043;SDS011;51680;49.806;18.774;2023-02-28T04:45:06;32.65;;;15.75;;
41043;SDS011;51680;49.806;18.774;2023-02-28T04:48:10;37.95;;;17.52;;
41043;SDS011;51680;49.806;18.774;2023-02-28T04:51:12;40.20;;;18.33;;
41043;SDS011;51680;49.806;18.774;2023-02-28T04:54:17;36.75;;;17.65;;
41043;SDS011;51680;49.806;18.774;2023-02-28T04:57:19;34.90;;;17.25;;
41043;SDS011;51680;49.806;18.774;2023-02-28T05:00:21;39.63;;;15.73;;
41043;SDS011;51680;49.806;18.774;2023-02-28T05:03:22;39.20;;;17.25;;
41043;SDS011;51680;49.806;18.774;2023-02-28T05:06:26;32.53;;;15.60;;
41043;SDS011;51680;49.806;18.774;2023-02-28T05:09:31;29.02;;;11.95;;
41043;SDS011;51680;49.806;18.774;2023-02-28T05:12:34;30.40;;;14.50;;
41043;SDS011;51680;49.806;18.774;2023-02-28T05:15:35;30.52;;;14.60;;
41043;SDS011;51680;49.806;18.774;2023-02-28T05:18:37;32.13;;;15.90;;
41043;SDS011;51680;49.806;18.774;2023-02-28T05:21:39;29.58;;;14.68;;
41043;SDS011;51680;49.806;18.774;2023-02-28T05:24:43;37.28;;;17.33;;
41043;SDS011;51680;49.806;18.774;2023-02-28T05:27:45;36.45;;;18.40;;
41043;SDS011;51680;49.806;18.774;2023-02-28T05:30:47;40.10;;;19.02;;
41043;SDS011;51680;49.806;18.774;2023-02-28T05:33:49;38.88;;;17.85;;
41043;SDS011;51680;49.806;18.774;2023-02-28T05:36:51;37.28;;;17.98;;
41043;SDS011;51680;49.806;18.774;2023-02-28T05:39:54;46.70;;;20.10;;
41043;SDS011;51680;49.806;18.774;2023-02-28T05:42:56;43.58;;;20.10;;
41043;SDS011;51680;49.806;18.774;2023-02-28T05:45:58;43.97;;;20.27;;
41043;SDS011;51680;49.806;18.774;2023-02-28T05:49:00;42.55;;;20.48;;
41043;SDS011;51680;49.806;18.774;2023-02-28T05:52:02;52.33;;;22.92;;
41043;SDS011;51680;49.806;18.774;2023-02-28T05:55:05;46.33;;;22.60;;
41043;SDS011;51680;49.806;18.774;2023-02-28T05:58:08;52.30;;;23.80;;
41043;SDS011;51680;49.806;18.774;2023-02-28T06:01:20;52.85;;;25.27;;
41043;SDS011;51680;49.806;18.774;2023-02-28T06:04:31;54.30;;;25.13;;
41043;SDS011;51680;49.806;18.774;2023-02-28T06:07:33;53.42;;;25.27;;
41043;SDS011;51680;49.806;18.774;2023-02-28T06:10:36;49.25;;;25.13;;
41043;SDS011;51680;49.806;18.774;2023-02-28T06:13:57;54.05;;;24.42;;
41043;SDS011;51680;49.806;18.774;2023-02-28T06:17:00;53.67;;;24.40;;
41043;SDS011;51680;49.806;18.774;2023-02-28T06:20:03;48.65;;;25.15;;
41043;SDS011;51680;49.806;18.774;2023-02-28T06:23:06;54.05;;;25.75;;
41043;SDS011;51680;49.806;18.774;2023-02-28T06:26:09;51.50;;;24.70;;
41043;SDS011;51680;49.806;18.774;2023-02-28T06:29:11;56.38;;;26.42;;
41043;SDS011;51680;49.806;18.774;2023-02-28T06:32:13;46.50;;;22.25;;
41043;SDS011;51680;49.806;18.774;2023-02-28T06:35:15;51.92;;;24.55;;
41043;SDS011;51680;49.806;18.774;2023-02-28T06:38:17;53.90;;;24.10;;
41043;SDS011;51680;49.806;18.774;2023-02-28T06:41:20;47.40;;;23.45;;
41043;SDS011;51680;49.806;18.774;2023-02-28T06:47:25;50.05;;;24.20;;
41043;SDS011;51680;49.806;18.774;2023-02-28T06:50:27;50.95;;;23.83;;
41043;SDS011;51680;49.806;18.774;2023-02-28T06:53:29;46.90;;;21.87;;
41043;SDS011;51680;49.806;18.774;2023-02-28T06:56:33;48.00;;;21.67;;
41043;SDS011;51680;49.806;18.774;2023-02-28T06:59:34;57.25;;;25.98;;
41043;SDS011;51680;49.806;18.774;2023-02-28T07:02:37;57.45;;;23.65;;
41043;SDS011;51680;49.806;18.774;2023-02-28T07:05:39;56.27;;;24.97;;
41043;SDS011;51680;49.806;18.774;2023-02-28T07:08:41;49.47;;;23.88;;
41043;SDS011;51680;49.806;18.774;2023-02-28T07:11:45;48.78;;;24.60;;
41043;SDS011;51680;49.806;18.774;2023-02-28T07:17:48;54.00;;;24.98;;
41043;SDS011;51680;49.806;18.774;2023-02-28T07:20:50;48.90;;;24.27;;
41043;SDS011;51680;49.806;18.774;2023-02-28T07:23:52;51.60;;;23.83;;
41043;SDS011;51680;49.806;18.774;2023-02-28T07:26:56;55.25;;;26.02;;
41043;SDS011;51680;49.806;18.774;2023-02-28T07:29:58;49.60;;;24.90;;
41043;SDS011;51680;49.806;18.774;2023-02-28T07:36:05;48.53;;;23.20;;
41043;SDS011;51680;49.806;18.774;2023-02-28T07:39:27;45.63;;;22.63;;
41043;SDS011;51680;49.806;18.774;2023-02-28T07:42:30;43.65;;;21.88;;
41043;SDS011;51680;49.806;18.774;2023-02-28T07:45:31;48.90;;;22.27;;
41043;SDS011;51680;49.806;18.774;2023-02-28T07:48:34;41.45;;;21.25;;
41043;SDS011;51680;49.806;18.774;2023-02-28T07:51:36;45.60;;;23.17;;
41043;SDS011;51680;49.806;18.774;2023-02-28T07:54:38;44.40;;;20.92;;
41043;SDS011;51680;49.806;18.774;2023-02-28T07:57:41;47.50;;;21.27;;
41043;SDS011;51680;49.806;18.774;2023-02-28T08:00:43;35.38;;;18.65;;
41043;SDS011;51680;49.806;18.774;2023-02-28T08:04:04;37.35;;;19.27;;
41043;SDS011;51680;49.806;18.774;2023-02-28T08:07:06;35.53;;;17.85;;
41043;SDS011;51680;49.806;18.774;2023-02-28T08:10:08;34.15;;;17.08;;
41043;SDS011;51680;49.806;18.774;2023-02-28T08:13:12;31.17;;;16.27;;
41043;SDS011;51680;49.806;18.774;2023-02-28T08:16:14;29.98;;;14.93;;
41043;SDS011;51680;49.806;18.774;2023-02-28T08:19:21;29.58;;;15.15;;
41043;SDS011;51680;49.806;18.774;2023-02-28T08:22:41;27.13;;;13.05;;
41043;SDS011;51680;49.806;18.774;2023-02-28T08:25:43;23.98;;;13.60;;
41043;SDS011;51680;49.806;18.774;2023-02-28T08:28:47;18.55;;;7.20;;
41043;SDS011;51680;49.806;18.774;2023-02-28T08:31:49;20.30;;;10.37;;
41043;SDS011;51680;49.806;18.774;2023-02-28T08:34:50;14.10;;;6.18;;
41043;SDS011;51680;49.806;18.774;2023-02-28T08:37:52;17.10;;;9.07;;
41043;SDS011;51680;49.806;18.774;2023-02-28T08:40:57;18.55;;;9.80;;
41043;SDS011;51680;49.806;18.774;2023-02-28T08:44:00;17.58;;;9.20;;
41043;SDS011;51680;49.806;18.774;2023-02-28T08:47:02;18.40;;;9.52;;
41043;SDS011;51680;49.806;18.774;2023-02-28T08:50:05;20.88;;;9.93;;
41043;SDS011;51680;49.806;18.774;2023-02-28T08:53:07;27.00;;;10.68;;
41043;SDS011;51680;49.806;18.774;2023-02-28T08:56:09;16.95;;;8.75;;
41043;SDS011;51680;49.806;18.774;2023-02-28T08:59:14;8.40;;;5.18;;
41043;SDS011;51680;49.806;18.774;2023-02-28T09:02:16;16.42;;;8.02;;
41043;SDS011;51680;49.806;18.774;2023-02-28T09:05:37;20.85;;;11.27;;
41043;SDS011;51680;49.806;18.774;2023-02-28T09:08:38;13.00;;;5.43;;
41043;SDS011;51680;49.806;18.774;2023-02-28T09:11:41;23.23;;;11.85;;
41043;SDS011;51680;49.806;18.774;2023-02-28T09:14:44;17.42;;;8.00;;
41043;SDS011;51680;49.806;18.774;2023-02-28T09:17:46;25.80;;;11.60;;
41043;SDS011;51680;49.806;18.774;2023-02-28T09:20:48;20.45;;;11.73;;
41043;SDS011;51680;49.806;18.774;2023-02-28T09:27:39;22.55;;;11.52;;
41043;SDS011;51680;49.806;18.774;2023-02-28T09:30:42;20.65;;;10.98;;
41043;SDS011;51680;49.806;18.774;2023-02-28T09:33:45;19.83;;;10.35;;
41043;SDS011;51680;49.806;18.774;2023-02-28T09:36:48;21.42;;;11.40;;
41043;SDS011;51680;49.806;18.774;2023-02-28T09:39:50;18.70;;;10.25;;
41043;SDS011;51680;49.806;18.774;2023-02-28T09:42:53;21.23;;;10.68;;
41043;SDS011;51680;49.806;18.774;2023-02-28T09:46:00;17.40;;;9.52;;
41043;SDS011;51680;49.806;18.774;2023-02-28T09:49:08;20.67;;;9.30;;
41043;SDS011;51680;49.806;18.774;2023-02-28T09:52:15;22.85;;;10.45;;
41043;SDS011;51680;49.806;18.774;2023-02-28T09:55:20;16.70;;;9.25;;
41043;SDS011;51680;49.806;18.774;2023-02-28T09:58:28;16.20;;;6.28;;
41043;SDS011;51680;49.806;18.774;2023-02-28T10:01:39;17.95;;;9.20;;
41043;SDS011;51680;49.806;18.774;2023-02-28T10:04:46;18.10;;;9.68;;
41043;SDS011;51680;49.806;18.774;2023-02-28T10:08:00;17.10;;;9.95;;
41043;SDS011;51680;49.806;18.774;2023-02-28T10:11:06;17.75;;;9.07;;
41043;SDS011;51680;49.806;18.774;2023-02-28T10:14:12;16.73;;;9.35;;
41043;SDS011;51680;49.806;18.774;2023-02-28T10:17:19;18.55;;;9.60;;
41043;SDS011;51680;49.806;18.774;2023-02-28T10:20:23;18.45;;;10.13;;
41043;SDS011;51680;49.806;18.774;2023-02-28T10:23:31;17.50;;;9.68;;
41043;SDS011;51680;49.806;18.774;2023-02-28T10:26:36;17.95;;;10.80;;
41043;SDS011;51680;49.806;18.774;2023-02-28T10:29:38;16.75;;;9.45;;
41043;SDS011;51680;49.806;18.774;2023-02-28T10:32:46;22.13;;;11.13;;
41043;SDS011;51680;49.806;18.774;2023-02-28T10:35:53;18.42;;;9.63;;
41043;SDS011;51680;49.806;18.774;2023-02-28T10:38:55;22.23;;;12.15;;
41043;SDS011;51680;49.806;18.774;2023-02-28T10:41:57;19.65;;;10.57;;
41043;SDS011;51680;49.806;18.774;2023-02-28T10:45:06;19.63;;;10.63;;
41043;SDS011;51680;49.806;18.774;2023-02-28T10:48:26;17.45;;;10.60;;
41043;SDS011;51680;49.806;18.774;2023-02-28T10:51:34;19.17;;;10.73;;
41043;SDS011;51680;49.806;18.774;2023-02-28T10:54:37;20.80;;;11.32;;
41043;SDS011;51680;49.806;18.774;2023-02-28T10:57:41;16.53;;;10.80;;
41043;SDS011;51680;49.806;18.774;2023-02-28T11:00:42;20.98;;;11.32;;
41043;SDS011;51680;49.806;18.774;2023-02-28T11:03:46;18.20;;;11.07;;
41043;SDS011;51680;49.806;18.774;2023-02-28T11:06:51;24.80;;;11.82;;
41043;SDS011;51680;49.806;18.774;2023-02-28T11:09:58;23.45;;;11.48;;
41043;SDS011;51680;49.806;18.774;2023-02-28T11:13:00;21.75;;;11.88;;
41043;SDS011;51680;49.806;18.774;2023-02-28T11:16:04;24.48;;;12.13;;
41043;SDS011;51680;49.806;18.774;2023-02-28T11:19:16;26.88;;;11.73;;
41043;SDS011;51680;49.806;18.774;2023-02-28T11:22:24;20.85;;;11.73;;
41043;SDS011;51680;49.806;18.774;2023-02-28T11:25:30;21.80;;;11.82;;
41043;SDS011;51680;49.806;18.774;2023-02-28T11:28:34;21.13;;;11.93;;
41043;SDS011;51680;49.806;18.774;2023-02-28T11:31:38;22.92;;;13.30;;
41043;SDS011;51680;49.806;18.774;2023-02-28T11:34:41;22.23;;;12.88;;
41043;SDS011;51680;49.806;18.774;2023-02-28T11:37:44;25.25;;;13.75;;
41043;SDS011;51680;49.806;18.774;2023-02-28T11:40:48;24.63;;;12.88;;
41043;SDS011;51680;49.806;18.774;2023-02-28T11:47:34;22.98;;;13.07;;
41043;SDS011;51680;49.806;18.774;2023-02-28T11:50:47;25.70;;;12.77;;
41043;SDS011;51680;49.806;18.774;2023-02-28T11:53:59;28.73;;;13.32;;
41043;SDS011;51680;49.806;18.774;2023-02-28T11:57:17;21.90;;;13.25;;
41043;SDS011;51680;49.806;18.774;2023-02-28T12:00:33;23.65;;;13.18;;
41043;SDS011;51680;49.806;18.774;2023-02-28T12:03:45;22.20;;;12.80;;
41043;SDS011;51680;49.806;18.774;2023-02-28T12:07:02;23.83;;;12.88;;
41043;SDS011;51680;49.806;18.774;2023-02-28T12:10:11;25.45;;;13.32;;
41043;SDS011;51680;49.806;18.774;2023-02-28T12:13:23;23.27;;;13.37;;
41043;SDS011;51680;49.806;18.774;2023-02-28T12:16:31;27.05;;;14.50;;
41043;SDS011;51680;49.806;18.774;2023-02-28T12:19:43;25.67;;;13.60;;
41043;SDS011;51680;49.806;18.774;2023-02-28T12:22:54;23.33;;;13.63;;
41043;SDS011;51680;49.806;18.774;2023-02-28T12:26:07;24.90;;;13.50;;
41043;SDS011;51680;49.806;18.774;2023-02-28T12:29:19;24.65;;;13.77;;
41043;SDS011;51680;49.806;18.774;2023-02-28T12:32:25;24.58;;;13.45;;
41043;SDS011;51680;49.806;18.774;2023-02-28T12:35:32;24.77;;;14.23;;
41043;SDS011;51680;49.806;18.774;2023-02-28T12:38:38;26.50;;;14.57;;
41043;SDS011;51680;49.806;18.774;2023-02-28T12:41:45;29.45;;;14.48;;
41043;SDS011;51680;49.806;18.774;2023-02-28T12:44:54;25.77;;;14.27;;
41043;SDS011;51680;49.806;18.774;2023-02-28T12:48:00;26.73;;;14.32;;
41043;SDS011;51680;49.806;18.774;2023-02-28T12:51:05;25.42;;;14.05;;
41043;SDS011;51680;49.806;18.774;2023-02-28T12:54:12;30.58;;;14.75;;
41043;SDS011;51680;49.806;18.774;2023-02-28T12:57:22;26.60;;;14.50;;
41043;SDS011;51680;49.806;18.774;2023-02-28T13:00:35;24.05;;;14.20;;
41043;SDS011;51680;49.806;18.774;2023-02-28T13:11:03;28.10;;;13.93;;
41043;SDS011;51680;49.806;18.774;2023-02-28T13:14:06;33.88;;;14.27;;
41043;SDS011;51680;49.806;18.774;2023-02-28T13:17:21;27.48;;;13.77;;
41043;SDS011;51680;49.806;18.774;2023-02-28T13:20:33;23.58;;;13.77;;
41043;SDS011;51680;49.806;18.774;2023-02-28T13:23:41;22.48;;;13.57;;
41043;SDS011;51680;49.806;18.774;2023-02-28T13:34:06;25.58;;;13.77;;
41043;SDS011;51680;49.806;18.774;2023-02-28T13:37:31;24.67;;;13.93;;
41043;SDS011;51680;49.806;18.774;2023-02-28T13:40:36;21.83;;;12.73;;
41043;SDS011;51680;49.806;18.774;2023-02-28T13:47:19;24.55;;;12.68;;
41043;SDS011;51680;49.806;18.774;2023-02-28T13:50:29;24.88;;;13.00;;
41043;SDS011;51680;49.806;18.774;2023-02-28T13:53:43;22.85;;;11.75;;
41043;SDS011;51680;49.806;18.774;2023-02-28T13:57:08;23.40;;;12.63;;
41043;SDS011;51680;49.806;18.774;2023-02-28T14:00:23;21.23;;;11.52;;
41043;SDS011;51680;49.806;18.774;2023-02-28T14:03:41;22.73;;;12.10;;
41043;SDS011;51680;49.806;18.774;2023-02-28T14:06:57;23.10;;;13.52;;
41043;SDS011;51680;49.806;18.774;2023-02-28T14:10:01;20.35;;;10.95;;
41043;SDS011;51680;49.806;18.774;2023-02-28T14:13:12;19.05;;;10.80;;
41043;SDS011;51680;49.806;18.774;2023-02-28T14:16:36;22.98;;;11.48;;
41043;SDS011;51680;49.806;18.774;2023-02-28T14:19:43;24.20;;;11.95;;
41043;SDS011;51680;49.806;18.774;2023-02-28T14:22:51;18.02;;;10.95;;
41043;SDS011;51680;49.806;18.774;2023-02-28T14:26:01;21.27;;;11.27;;
41043;SDS011;51680;49.806;18.774;2023-02-28T14:29:14;20.15;;;11.65;;
41043;SDS011;51680;49.806;18.774;2023-02-28T14:32:33;21.20;;;12.00;;
41043;SDS011;51680;49.806;18.774;2023-02-28T14:35:51;18.65;;;11.82;;
41043;SDS011;51680;49.806;18.774;2023-02-28T14:39:04;24.35;;;13.02;;
41043;SDS011;51680;49.806;18.774;2023-02-28T14:45:29;33.50;;;17.50;;
41043;SDS011;51680;49.806;18.774;2023-02-28T14:51:36;22.08;;;12.18;;
41043;SDS011;51680;49.806;18.774;2023-02-28T14:54:38;25.92;;;13.40;;
41043;SDS011;51680;49.806;18.774;2023-02-28T14:57:42;26.45;;;12.65;;
41043;SDS011;51680;49.806;18.774;2023-02-28T15:00:53;23.88;;;11.75;;
41043;SDS011;51680;49.806;18.774;2023-02-28T15:03:58;23.83;;;12.30;;
41043;SDS011;51680;49.806;18.774;2023-02-28T15:07:07;23.88;;;12.43;;
41043;SDS011;51680;49.806;18.774;2023-02-28T15:10:10;24.23;;;13.25;;
41043;SDS011;51680;49.806;18.774;2023-02-28T15:13:16;21.75;;;12.48;;
41043;SDS011;51680;49.806;18.774;2023-02-28T15:16:20;25.80;;;14.25;;
41043;SDS011;51680;49.806;18.774;2023-02-28T15:19:27;32.67;;;16.85;;
41043;SDS011;51680;49.806;18.774;2023-02-28T15:22:35;38.35;;;19.85;;
41043;SDS011;51680;49.806;18.774;2023-02-28T15:25:39;22.63;;;12.60;;
41043;SDS011;51680;49.806;18.774;2023-02-28T15:28:42;22.92;;;11.90;;
41043;SDS011;51680;49.806;18.774;2023-02-28T15:31:45;21.30;;;11.68;;
41043;SDS011;51680;49.806;18.774;2023-02-28T15:34:51;27.70;;;12.57;;
41043;SDS011;51680;49.806;18.774;2023-02-28T15:37:55;28.00;;;13.60;;
41043;SDS011;51680;49.806;18.774;2023-02-28T15:47:35;25.33;;;14.70;;
41043;SDS011;51680;49.806;18.774;2023-02-28T15:50:38;20.30;;;11.82;;
41043;SDS011;51680;49.806;18.774;2023-02-28T15:53:41;25.70;;;12.27;;
41043;SDS011;51680;49.806;18.774;2023-02-28T15:56:49;23.35;;;12.38;;
41043;SDS011;51680;49.806;18.774;2023-02-28T15:59:53;24.33;;;12.90;;
41043;SDS011;51680;49.806;18.774;2023-02-28T16:02:57;26.00;;;13.45;;
41043;SDS011;51680;49.806;18.774;2023-02-28T16:09:45;28.77;;;13.38;;
41043;SDS011;51680;49.806;18.774;2023-02-28T16:12:47;23.70;;;13.23;;
41043;SDS011;51680;49.806;18.774;2023-02-28T16:15:49;24.85;;;13.45;;
41043;SDS011;51680;49.806;18.774;2023-02-28T16:18:51;29.42;;;16.35;;
41043;SDS011;51680;49.806;18.774;2023-02-28T16:21:54;31.05;;;16.02;;
41043;SDS011;51680;49.806;18.774;2023-02-28T16:24:57;26.35;;;14.10;;
41043;SDS011;51680;49.806;18.774;2023-02-28T16:27:59;27.65;;;15.55;;
41043;SDS011;51680;49.806;18.774;2023-02-28T16:31:02;28.83;;;16.65;;
41043;SDS011;51680;49.806;18.774;2023-02-28T16:34:05;36.42;;;18.55;;
41043;SDS011;51680;49.806;18.774;2023-02-28T16:37:12;37.67;;;18.70;;
41043;SDS011;51680;49.806;18.774;2023-02-28T16:40:18;34.90;;;19.23;;
41043;SDS011;51680;49.806;18.774;2023-02-28T16:43:22;43.95;;;23.42;;
41043;SDS011;51680;49.806;18.774;2023-02-28T16:46:27;34.47;;;18.60;;
41043;SDS011;51680;49.806;18.774;2023-02-28T16:49:34;37.92;;;20.17;;
41043;SDS011;51680;49.806;18.774;2023-02-28T16:52:35;35.90;;;18.17;;
41043;SDS011;51680;49.806;18.774;2023-02-28T16:55:38;37.67;;;19.63;;
41043;SDS011;51680;49.806;18.774;2023-02-28T16:58:40;39.40;;;18.90;;
41043;SDS011;51680;49.806;18.774;2023-02-28T17:01:42;42.63;;;20.67;;
41043;SDS011;51680;49.806;18.774;2023-02-28T17:04:44;39.05;;;21.33;;
41043;SDS011;51680;49.806;18.774;2023-02-28T17:07:46;43.00;;;22.35;;
41043;SDS011;51680;49.806;18.774;2023-02-28T17:10:49;41.58;;;21.67;;
41043;SDS011;51680;49.806;18.774;2023-02-28T17:13:51;44.90;;;22.58;;
41043;SDS011;51680;49.806;18.774;2023-02-28T17:16:54;45.67;;;23.30;;
41043;SDS011;51680;49.806;18.774;2023-02-28T17:19:55;51.58;;;26.23;;
41043;SDS011;51680;49.806;18.774;2023-02-28T17:22:57;56.90;;;25.23;;
41043;SDS011;51680;49.806;18.774;2023-02-28T17:26:00;51.10;;;24.95;;
41043;SDS011;51680;49.806;18.774;2023-02-28T17:29:02;63.97;;;27.60;;
41043;SDS011;51680;49.806;18.774;2023-02-28T17:32:04;58.60;;;26.13;;
41043;SDS011;51680;49.806;18.774;2023-02-28T17:35:06;69.72;;;30.50;;
41043;SDS011;51680;49.806;18.774;2023-02-28T17:38:14;61.03;;;28.15;;
41043;SDS011;51680;49.806;18.774;2023-02-28T17:41:38;72.82;;;29.33;;
41043;SDS011;51680;49.806;18.774;2023-02-28T17:44:40;59.95;;;28.23;;
41043;SDS011;51680;49.806;18.774;2023-02-28T17:47:42;64.38;;;29.30;;
41043;SDS011;51680;49.806;18.774;2023-02-28T17:50:47;58.40;;;25.35;;
41043;SDS011;51680;49.806;18.774;2023-02-28T17:53:49;57.33;;;23.73;;
41043;SDS011;51680;49.806;18.774;2023-02-28T17:56:52;68.68;;;28.25;;
41043;SDS011;51680;49.806;18.774;2023-02-28T17:59:54;56.33;;;26.58;;
41043;SDS011;51680;49.806;18.774;2023-02-28T18:02:55;62.50;;;27.23;;
41043;SDS011;51680;49.806;18.774;2023-02-28T18:05:57;60.30;;;26.38;;
41043;SDS011;51680;49.806;18.774;2023-02-28T18:08:59;61.58;;;26.95;;
41043;SDS011;51680;49.806;18.774;2023-02-28T18:12:03;66.45;;;29.05;;
41043;SDS011;51680;49.806;18.774;2023-02-28T18:15:07;76.10;;;33.80;;
41043;SDS011;51680;49.806;18.774;2023-02-28T18:18:10;70.45;;;32.45;;
41043;SDS011;51680;49.806;18.774;2023-02-28T18:21:13;69.13;;;32.50;;
41043;SDS011;51680;49.806;18.774;2023-02-28T18:24:16;70.60;;;32.63;;
41043;SDS011;51680;49.806;18.774;2023-02-28T18:27:21;72.40;;;32.67;;
41043;SDS011;51680;49.806;18.774;2023-02-28T18:30:24;66.15;;;31.30;;
41043;SDS011;51680;49.806;18.774;2023-02-28T18:33:30;70.07;;;31.00;;
41043;SDS011;51680;49.806;18.774;2023-02-28T18:36:32;65.43;;;28.35;;
41043;SDS011;51680;49.806;18.774;2023-02-28T18:39:34;67.50;;;29.15;;
41043;SDS011;51680;49.806;18.774;2023-02-28T18:42:37;59.75;;;28.08;;
41043;SDS011;51680;49.806;18.774;2023-02-28T18:45:39;65.60;;;31.33;;
41043;SDS011;51680;49.806;18.774;2023-02-28T18:48:41;70.55;;;31.92;;
41043;SDS011;51680;49.806;18.774;2023-02-28T18:51:43;68.53;;;30.92;;
41043;SDS011;51680;49.806;18.774;2023-02-28T18:54:45;67.03;;;31.67;;